Time,TemperatureF,DewpointF,PressureIn,WindDirection,WindDirectionDegrees,WindSpeedMPH,WindSpeedGustMPH,Humidity,HourlyPrecipIn,Conditions,Clouds,dailyrainin,SoftwareType,DateUTC
2013-03-04 00:01:00,12.0,12.0,29.94,NNW,333,4.0,7.0,99,0.00,,,-99.99,,2013-03-04 05:01:00,
2013-03-04 00:11:00,12.0,12.0,29.94,NNW,333,4.0,7.0,99,0.00,,,-99.99,,2013-03-04 05:11:00,
2013-03-04 00:22:00,12.0,12.0,29.95,North,352,4.0,5.0,99,0.00,,,-99.99,,2013-03-04 05:22:00,
2013-03-04 00:32:00,13.0,13.0,29.95,NNE,23,3.0,10.0,99,0.00,,,-99.99,,2013-03-04 05:32:00,
2013-03-04 00:42:00,12.0,12.0,29.96,North,11,3.0,11.0,99,0.00,,,-99.99,,2013-03-04 05:42:00,
2013-03-04 00:52:00,12.0,12.0,29.96,North,11,3.0,11.0,99,0.00,,,-99.99,,2013-03-04 05:52:00,
2013-03-04 01:02:00,12.0,12.0,29.96,North,11,3.0,11.0,99,0.00,,,-99.99,,2013-03-04 06:02:00,
2013-03-04 01:11:00,12.0,12.0,29.96,North,11,3.0,11.0,99,0.00,,,-99.99,,2013-03-04 06:11:00,
2013-03-04 01:22:00,12.0,12.0,29.96,NNE,15,5.0,9.0,99,0.00,,,-99.99,,2013-03-04 06:22:00,
2013-03-04 01:32:00,12.0,12.0,29.96,NNE,15,5.0,9.0,99,0.00,,,-99.99,,2013-03-04 06:32:00,
2013-03-04 01:42:00,12.0,12.0,29.96,NNE,15,5.0,9.0,99,0.00,,,-99.99,,2013-03-04 06:42:00,
2013-03-04 01:52:00,11.0,11.0,29.97,North,11,7.0,12.0,99,0.00,,,-99.99,,2013-03-04 06:52:00,
2013-03-04 02:01:00,11.0,11.0,29.97,North,11,7.0,12.0,99,0.00,,,-99.99,,2013-03-04 07:01:00,
2013-03-04 02:11:00,11.0,11.0,29.97,North,11,7.0,12.0,99,0.00,,,-99.99,,2013-03-04 07:11:00,
2013-03-04 02:21:00,11.0,11.0,29.98,North,6,0.0,10.0,99,0.00,,,-99.99,,2013-03-04 07:21:00,
2013-03-04 02:32:00,11.0,11.0,29.98,North,354,4.0,9.0,99,0.00,,,-99.99,,2013-03-04 07:32:00,
2013-03-04 02:42:00,11.0,11.0,29.98,North,354,4.0,9.0,99,0.00,,,-99.99,,2013-03-04 07:42:00,
2013-03-04 02:52:00,11.0,11.0,29.98,NNE,30,6.0,8.0,98,0.00,,,-99.99,,2013-03-04 07:52:00,
2013-03-04 03:02:00,11.0,11.0,29.98,NNW,347,7.0,10.0,98,0.00,,,-99.99,,2013-03-04 08:02:00,
2013-03-04 03:11:00,11.0,11.0,29.98,NE,35,6.0,9.0,98,0.00,,,-99.99,,2013-03-04 08:11:00,
2013-03-04 03:22:00,11.0,11.0,29.98,NE,35,6.0,9.0,98,0.00,,,-99.99,,2013-03-04 08:22:00,
2013-03-04 03:32:00,11.0,11.0,29.97,NE,44,6.0,9.0,98,0.00,,,-99.99,,2013-03-04 08:32:00,
2013-03-04 03:42:00,11.0,11.0,29.97,NE,44,6.0,9.0,98,0.00,,,-99.99,,2013-03-04 08:42:00,
2013-03-04 03:52:00,11.0,11.0,29.97,NNE,30,4.0,8.0,99,0.00,,,-99.99,,2013-03-04 08:52:00,
2013-03-04 04:02:00,11.0,11.0,29.97,NNE,30,4.0,8.0,99,0.00,,,-99.99,,2013-03-04 09:02:00,
2013-03-04 04:11:00,11.0,11.0,29.97,NNE,30,4.0,8.0,99,0.00,,,-99.99,,2013-03-04 09:11:00,
2013-03-04 04:21:00,11.0,11.0,29.98,NW,312,4.0,10.0,99,0.00,,,-99.99,,2013-03-04 09:21:00,
2013-03-04 04:32:00,12.0,12.0,29.98,NNE,30,5.0,8.0,99,0.00,,,-99.99,,2013-03-04 09:32:00,
2013-03-04 04:42:00,12.0,12.0,29.98,NNE,30,5.0,8.0,99,0.00,,,-99.99,,2013-03-04 09:42:00,
2013-03-04 04:52:00,12.0,12.0,29.99,North,349,0.0,9.0,99,0.00,,,-99.99,,2013-03-04 09:52:00,
2013-03-04 05:01:00,12.0,12.0,29.99,NNW,347,0.0,10.0,99,0.00,,,-99.99,,2013-03-04 10:01:00,
2013-03-04 05:11:00,12.0,12.0,29.99,NNW,347,0.0,10.0,99,0.00,,,-99.99,,2013-03-04 10:11:00,
2013-03-04 05:22:00,12.0,12.0,29.99,NNE,14,0.0,10.0,99,0.00,,,-99.99,,2013-03-04 10:22:00,
2013-03-04 05:32:00,12.0,12.0,29.99,ENE,60,0.0,8.0,99,0.00,,,-99.99,,2013-03-04 10:32:00,
2013-03-04 05:42:00,12.0,12.0,29.99,NE,45,4.0,8.0,99,0.00,,,-99.99,,2013-03-04 10:42:00,
2013-03-04 05:52:00,12.0,12.0,29.99,NE,45,4.0,8.0,99,0.00,,,-99.99,,2013-03-04 10:52:00,
2013-03-04 06:02:00,12.0,12.0,30.01,North,359,6.0,10.0,99,0.00,,,-99.99,,2013-03-04 11:02:00,
2013-03-04 06:11:00,12.0,12.0,30.01,North,359,6.0,10.0,99,0.00,,,-99.99,,2013-03-04 11:11:00,
2013-03-04 06:22:00,12.0,12.0,30.01,North,359,2.0,10.0,99,0.00,,,-99.99,,2013-03-04 11:22:00,
2013-03-04 06:32:00,12.0,12.0,30.01,NNE,27,8.0,12.0,99,0.00,,,-99.99,,2013-03-04 11:32:00,
2013-03-04 06:42:00,12.0,12.0,30.01,NNE,27,8.0,12.0,99,0.00,,,-99.99,,2013-03-04 11:42:00,
2013-03-04 06:52:00,12.0,12.0,30.01,North,359,4.0,17.0,99,0.00,,,-99.99,,2013-03-04 11:52:00,
2013-03-04 07:01:00,12.0,12.0,30.01,North,0,0.0,9.0,99,0.00,,,-99.99,,2013-03-04 12:01:00,
2013-03-04 07:11:00,12.0,12.0,30.02,North,10,3.0,10.0,99,0.00,,,-99.99,,2013-03-04 12:11:00,
2013-03-04 07:22:00,12.0,12.0,30.02,North,10,3.0,10.0,99,0.00,,,-99.99,,2013-03-04 12:22:00,
2013-03-04 07:32:00,13.0,13.0,30.03,NW,325,7.0,12.0,99,0.00,,,-99.99,,2013-03-04 12:32:00,
2013-03-04 07:42:00,13.0,13.0,30.03,NW,325,7.0,12.0,99,0.00,,,-99.99,,2013-03-04 12:42:00,
2013-03-04 07:52:00,13.0,13.0,30.03,North,349,7.0,11.0,99,0.00,,,-99.99,,2013-03-04 12:52:00,
2013-03-04 08:02:00,13.0,13.0,30.04,NW,319,9.0,14.0,99,0.00,,,-99.99,,2013-03-04 13:02:00,
2013-03-04 08:11:00,13.0,13.0,30.04,NW,319,9.0,14.0,99,0.00,,,-99.99,,2013-03-04 13:11:00,
2013-03-04 08:21:00,13.0,13.0,30.06,North,1,6.0,9.0,100,0.00,,,-99.99,,2013-03-04 13:21:00,
2013-03-04 08:32:00,13.0,13.0,30.06,North,1,6.0,9.0,100,0.00,,,-99.99,,2013-03-04 13:32:00,
2013-03-04 08:42:00,13.0,13.0,30.06,North,1,6.0,9.0,100,0.00,,,-99.99,,2013-03-04 13:42:00,
2013-03-04 08:52:00,14.0,14.0,30.07,NW,309,5.0,8.0,100,0.00,,,-99.99,,2013-03-04 13:52:00,
2013-03-04 09:01:00,14.0,14.0,30.07,NW,325,2.0,7.0,99,0.00,,,-99.99,,2013-03-04 14:01:00,
2013-03-04 09:12:00,14.0,14.0,30.07,NW,325,2.0,7.0,99,0.00,,,-99.99,,2013-03-04 14:12:00,
2013-03-04 09:22:00,16.0,16.0,30.09,NNW,330,2.0,4.0,99,0.00,,,-99.99,,2013-03-04 14:22:00,
2013-03-04 09:32:00,17.0,17.0,30.09,WNW,300,1.0,7.0,98,0.00,,,-99.99,,2013-03-04 14:32:00,
2013-03-04 09:42:00,17.0,17.0,30.09,WNW,300,1.0,7.0,98,0.00,,,-99.99,,2013-03-04 14:42:00,
2013-03-04 09:52:00,19.0,18.0,30.09,NW,305,0.0,6.0,97,0.00,,,-99.99,,2013-03-04 14:52:00,
2013-03-04 10:01:00,19.0,18.0,30.10,NNE,30,0.0,5.0,96,0.00,,,-99.99,,2013-03-04 15:01:00,
2013-03-04 10:11:00,19.0,18.0,30.10,NNE,30,0.0,5.0,96,0.00,,,-99.99,,2013-03-04 15:11:00,
2013-03-04 10:22:00,21.0,19.0,30.11,NNW,345,1.0,6.0,93,0.00,,,-99.99,,2013-03-04 15:22:00,
2013-03-04 10:32:00,21.0,19.0,30.11,NNW,345,1.0,6.0,93,0.00,,,-99.99,,2013-03-04 15:32:00,
2013-03-04 10:42:00,21.0,19.0,30.11,NNW,345,1.0,6.0,93,0.00,,,-99.99,,2013-03-04 15:42:00,
2013-03-04 10:52:00,22.0,20.0,30.12,NNW,335,0.0,8.0,90,0.01,,,-99.99,,2013-03-04 15:52:00,
2013-03-04 11:02:00,23.0,21.0,30.13,North,0,0.0,2.0,90,0.01,,,-99.99,,2013-03-04 16:02:00,
2013-03-04 11:11:00,23.0,21.0,30.13,North,0,0.0,2.0,90,0.01,,,-99.99,,2013-03-04 16:11:00,
2013-03-04 11:21:00,25.0,22.0,30.13,North,1,2.0,3.0,88,0.02,,,-99.99,,2013-03-04 16:21:00,
2013-03-04 11:32:00,26.0,23.0,30.14,NE,37,3.0,8.0,87,0.02,,,-99.99,,2013-03-04 16:32:00,
2013-03-04 11:42:00,26.0,23.0,30.14,NE,37,3.0,8.0,87,0.02,,,-99.99,,2013-03-04 16:42:00,
2013-03-04 11:52:00,27.0,23.0,30.15,NNW,335,1.0,6.0,85,0.03,,,-99.99,,2013-03-04 16:52:00,
2013-03-04 12:02:00,28.0,24.0,30.15,NNW,329,3.0,7.0,85,0.04,,,-99.99,,2013-03-04 17:02:00,
2013-03-04 12:11:00,28.0,24.0,30.15,NNW,329,3.0,7.0,85,0.04,,,-99.99,,2013-03-04 17:11:00,
2013-03-04 12:22:00,29.0,24.0,30.16,North,359,4.0,6.0,81,0.05,,,-99.99,,2013-03-04 17:22:00,
2013-03-04 12:32:00,29.0,23.0,30.16,West,267,5.0,11.0,79,0.06,,,-99.99,,2013-03-04 17:32:00,
2013-03-04 12:42:00,29.0,23.0,30.16,West,267,5.0,11.0,79,0.06,,,-99.99,,2013-03-04 17:42:00,
2013-03-04 12:52:00,30.0,23.0,30.16,West,270,1.0,5.0,74,0.07,,,-99.99,,2013-03-04 17:52:00,
2013-03-04 13:01:00,31.0,23.0,30.15,North,8,2.0,7.0,73,0.07,,,-99.99,,2013-03-04 18:01:00,
2013-03-04 13:11:00,31.0,23.0,30.15,North,8,2.0,7.0,73,0.07,,,-99.99,,2013-03-04 18:11:00,
2013-03-04 13:22:00,31.0,23.0,30.15,NW,315,3.0,8.0,73,0.08,,,-99.99,,2013-03-04 18:22:00,
2013-03-04 13:32:00,32.0,23.0,30.14,NW,316,4.0,6.0,70,0.08,,,-99.99,,2013-03-04 18:32:00,
2013-03-04 13:42:00,32.0,23.0,30.14,NW,316,4.0,6.0,70,0.08,,,-99.99,,2013-03-04 18:42:00,
2013-03-04 13:52:00,34.0,25.0,30.14,West,267,3.0,9.0,68,0.07,,,-99.99,,2013-03-04 18:52:00,
2013-03-04 14:02:00,34.0,24.0,30.14,NNE,18,4.0,6.0,67,0.07,,,-99.99,,2013-03-04 19:02:00,
2013-03-04 14:11:00,34.0,24.0,30.14,NNE,18,4.0,6.0,67,0.07,,,-99.99,,2013-03-04 19:11:00,
2013-03-04 14:22:00,34.0,23.0,30.13,WNW,302,5.0,8.0,63,0.05,,,-99.99,,2013-03-04 19:22:00,
2013-03-04 14:32:00,35.0,24.0,30.13,NW,314,6.0,7.0,65,0.05,,,-99.99,,2013-03-04 19:32:00,
2013-03-04 14:42:00,35.0,24.0,30.13,NW,314,6.0,7.0,65,0.05,,,-99.99,,2013-03-04 19:42:00,
2013-03-04 14:52:00,35.0,24.0,30.13,NW,314,6.0,7.0,65,0.05,,,-99.99,,2013-03-04 19:52:00,
2013-03-04 15:02:00,37.0,25.0,30.13,NNW,329,6.0,6.0,61,0.03,,,-99.99,,2013-03-04 20:02:00,
2013-03-04 15:11:00,37.0,25.0,30.13,NNW,329,6.0,6.0,61,0.03,,,-99.99,,2013-03-04 20:11:00,
2013-03-04 15:22:00,37.0,25.0,30.13,NNW,329,6.0,6.0,61,0.03,,,-99.99,,2013-03-04 20:22:00,
2013-03-04 15:32:00,38.0,24.0,30.13,NW,312,3.0,7.0,57,0.02,,,-99.99,,2013-03-04 20:32:00,
2013-03-04 15:42:00,38.0,24.0,30.13,NW,312,3.0,7.0,57,0.02,,,-99.99,,2013-03-04 20:42:00,
2013-03-04 15:53:00,39.0,25.0,30.13,WNW,293,2.0,5.0,56,0.01,,,-99.99,,2013-03-04 20:53:00,
2013-03-04 16:02:00,39.0,25.0,30.13,NW,314,2.0,7.0,56,0.01,,,-99.99,,2013-03-04 21:02:00,
2013-03-04 16:12:00,39.0,25.0,30.13,NW,314,2.0,7.0,56,0.01,,,-99.99,,2013-03-04 21:12:00,
2013-03-04 16:22:00,39.0,24.0,30.12,NNE,18,2.0,5.0,54,0.01,,,-99.99,,2013-03-04 21:22:00,
2013-03-04 16:32:00,39.0,23.0,30.13,NW,309,3.0,6.0,52,0.01,,,-99.99,,2013-03-04 21:32:00,
2013-03-04 16:42:00,39.0,23.0,30.13,NW,309,3.0,6.0,52,0.01,,,-99.99,,2013-03-04 21:42:00,
2013-03-04 16:53:00,40.0,24.0,30.13,NW,316,6.0,8.0,53,0.01,,,-99.99,,2013-03-04 21:53:00,
2013-03-04 17:02:00,40.0,23.0,30.13,WNW,293,4.0,7.0,50,0.01,,,-99.99,,2013-03-04 22:02:00,
2013-03-04 17:12:00,40.0,23.0,30.13,WNW,293,4.0,7.0,50,0.01,,,-99.99,,2013-03-04 22:12:00,
2013-03-04 17:22:00,39.0,24.0,30.14,West,276,2.0,4.0,55,0.00,,,-99.99,,2013-03-04 22:22:00,
2013-03-04 17:32:00,39.0,25.0,30.14,NW,322,0.0,4.0,57,0.00,,,-99.99,,2013-03-04 22:32:00,
2013-03-04 17:40:00,37.0,24.0,30.15,NW,318,3.0,4.0,59,0.00,,,-99.99,,2013-03-04 22:40:00,
2013-03-04 17:42:00,39.0,25.0,30.14,NW,322,0.0,4.0,57,0.00,,,-99.99,,2013-03-04 22:42:00,
2013-03-04 17:52:00,37.0,23.0,30.15,WNW,290,0.0,4.0,57,0.00,,,-99.99,,2013-03-04 22:52:00,
2013-03-04 18:02:00,37.0,24.0,30.15,NW,318,3.0,4.0,59,0.00,,,-99.99,,2013-03-04 23:02:00,
2013-03-04 18:11:00,37.0,24.0,30.15,NW,318,3.0,4.0,59,0.00,,,-99.99,,2013-03-04 23:11:00,
2013-03-04 18:22:00,37.0,24.0,30.15,NW,318,3.0,4.0,59,0.00,,,-99.99,,2013-03-04 23:22:00,
2013-03-04 18:32:00,37.0,24.0,30.15,NW,318,3.0,4.0,59,0.00,,,-99.99,,2013-03-04 23:32:00,
2013-03-04 18:52:00,34.0,23.0,30.16,NW,323,0.0,2.0,65,0.00,,,-99.99,,2013-03-04 23:52:00,
2013-03-04 19:02:00,34.0,23.0,30.16,NW,323,0.0,2.0,65,0.00,,,-99.99,,2013-03-05 00:02:00,
2013-03-04 19:12:00,34.0,23.0,30.16,NW,323,0.0,2.0,65,0.00,,,-99.99,,2013-03-05 00:12:00,
2013-03-04 19:22:00,32.0,20.0,30.16,NW,315,0.0,0.0,60,0.00,,,-99.99,,2013-03-05 00:22:00,
2013-03-04 19:32:00,32.0,20.0,30.16,NW,315,0.0,0.0,61,0.00,,,-99.99,,2013-03-05 00:32:00,
2013-03-04 19:42:00,32.0,20.0,30.16,NW,315,0.0,0.0,61,0.00,,,-99.99,,2013-03-05 00:42:00,
2013-03-04 19:51:00,31.0,21.0,30.17,NW,315,0.0,1.0,66,0.00,,,-99.99,,2013-03-05 00:51:00,
2013-03-04 20:02:00,31.0,21.0,30.17,NW,315,0.0,1.0,66,0.00,,,-99.99,,2013-03-05 01:02:00,
2013-03-04 20:12:00,31.0,21.0,30.17,NW,315,0.0,1.0,66,0.00,,,-99.99,,2013-03-05 01:12:00,
2013-03-04 20:22:00,31.0,21.0,30.17,NW,315,0.0,1.0,66,0.00,,,-99.99,,2013-03-05 01:22:00,
2013-03-04 20:32:00,33.0,24.0,30.16,WNW,291,0.0,1.0,70,0.00,,,-99.99,,2013-03-05 01:32:00,
2013-03-04 20:42:00,33.0,24.0,30.16,WNW,291,0.0,1.0,70,0.00,,,-99.99,,2013-03-05 01:42:00,
2013-03-04 20:52:00,33.0,26.0,30.16,WNW,298,2.0,2.0,75,0.00,,,-99.99,,2013-03-05 01:52:00,
2013-03-04 21:02:00,33.0,27.0,30.16,NW,323,1.0,3.0,78,0.00,,,-99.99,,2013-03-05 02:02:00,
2013-03-04 21:11:00,33.0,27.0,30.16,NW,323,1.0,3.0,78,0.00,,,-99.99,,2013-03-05 02:11:00,
2013-03-04 21:22:00,33.0,28.0,30.17,NW,325,0.0,4.0,81,0.00,,,-99.99,,2013-03-05 02:22:00,
2013-03-04 21:32:00,33.0,28.0,30.17,WNW,285,0.0,3.0,81,0.00,,,-99.99,,2013-03-05 02:32:00,
2013-03-04 21:42:00,33.0,28.0,30.17,WNW,285,0.0,3.0,81,0.00,,,-99.99,,2013-03-05 02:42:00,
2013-03-04 21:53:00,32.0,28.0,30.16,NW,309,0.0,0.0,84,0.00,,,-99.99,,2013-03-05 02:53:00,
2013-03-04 22:02:00,33.0,28.0,30.16,NW,309,0.0,0.0,82,0.00,,,-99.99,,2013-03-05 03:02:00,
2013-03-04 22:12:00,33.0,28.0,30.16,NW,309,0.0,0.0,80,0.00,,,-99.99,,2013-03-05 03:12:00,
2013-03-04 22:22:00,33.0,28.0,30.16,NW,309,0.0,0.0,80,0.00,,,-99.99,,2013-03-05 03:22:00,
2013-03-04 22:32:00,33.0,27.0,30.16,NW,305,2.0,2.0,78,0.00,,,-99.99,,2013-03-05 03:32:00,
2013-03-04 22:42:00,33.0,27.0,30.16,NW,305,2.0,2.0,78,0.00,,,-99.99,,2013-03-05 03:42:00,
2013-03-04 22:52:00,34.0,28.0,30.16,WNW,293,2.0,3.0,77,0.00,,,-99.99,,2013-03-05 03:52:00,
2013-03-04 23:02:00,34.0,28.0,30.17,WNW,285,4.0,7.0,77,0.00,,,-99.99,,2013-03-05 04:02:00,
2013-03-04 23:12:00,34.0,28.0,30.17,WNW,285,4.0,7.0,77,0.00,,,-99.99,,2013-03-05 04:12:00,
2013-03-04 23:22:00,34.0,27.0,30.17,NW,305,2.0,3.0,75,0.00,,,-99.99,,2013-03-05 04:22:00,
2013-03-04 23:32:00,33.0,24.0,30.17,West,278,3.0,6.0,70,0.00,,,-99.99,,2013-03-05 04:32:00,
2013-03-04 23:42:00,33.0,24.0,30.17,West,278,3.0,6.0,70,0.00,,,-99.99,,2013-03-05 04:42:00,
2013-03-04 23:52:00,33.0,24.0,30.17,West,273,5.0,8.0,69,0.00,,,-99.99,,2013-03-05 04:52:00,